createdAt,value
2017-11-07T00:01:52.445Z,9.37
2017-11-07T00:06:54.262Z,8.97
2017-11-07T00:11:55.394Z,9.20
2017-11-07T00:16:56.477Z,8.40
2017-11-07T00:21:57.547Z,8.43
2017-11-07T00:26:58.630Z,8.20
2017-11-07T00:31:59.674Z,7.97
2017-11-07T00:37:00.733Z,8.17
2017-11-07T00:42:01.831Z,7.20
2017-11-07T00:47:02.914Z,8.47
2017-11-07T00:52:03.986Z,7.10
2017-11-07T00:57:05.081Z,7.67
2017-11-07T01:02:06.164Z,7.87
2017-11-07T01:07:07.257Z,7.23
2017-11-07T01:12:08.292Z,9.27
2017-11-07T01:17:09.358Z,9.07
2017-11-07T01:22:10.429Z,8.00
2017-11-07T01:27:11.514Z,8.53
2017-11-07T01:32:12.564Z,10.17
2017-11-07T01:37:13.625Z,9.97
2017-11-07T01:42:14.721Z,10.73
2017-11-07T01:47:16.562Z,9.47
2017-11-07T01:52:17.663Z,10.40
2017-11-07T01:57:19.500Z,9.67
2017-11-07T02:02:20.596Z,10.90
2017-11-07T02:07:22.421Z,11.53
2017-11-07T02:12:23.554Z,10.07
2017-11-07T02:17:24.596Z,10.43
2017-11-07T02:22:25.664Z,10.50
2017-11-07T02:27:26.749Z,9.87
2017-11-07T02:32:27.849Z,11.40
2017-11-07T02:37:29.708Z,9.10
2017-11-07T02:42:30.784Z,9.20
2017-11-07T02:47:32.628Z,9.30
2017-11-07T02:52:33.720Z,8.93
2017-11-07T02:57:34.812Z,8.37
2017-11-07T03:02:35.865Z,8.90
2017-11-07T03:07:37.110Z,7.97
2017-11-07T03:12:38.917Z,8.30
2017-11-07T03:17:39.977Z,8.27
2017-11-07T03:22:41.025Z,7.87
2017-11-07T03:27:42.144Z,7.57
2017-11-07T03:32:43.185Z,6.90
2017-11-07T03:37:44.265Z,6.87
2017-11-07T03:42:46.116Z,8.30
2017-11-07T03:47:47.201Z,7.23
2017-11-07T03:52:48.272Z,6.23
2017-11-07T03:57:50.097Z,6.63
2017-11-07T04:02:51.153Z,7.90
2017-11-07T04:07:52.253Z,6.20
2017-11-07T04:12:53.286Z,7.00
2017-11-07T04:17:55.089Z,6.30
2017-11-07T04:22:56.912Z,6.60
2017-11-07T04:27:57.973Z,5.83
2017-11-07T04:32:59.073Z,6.70
2017-11-07T04:38:00.134Z,5.43
2017-11-07T04:43:01.229Z,5.50
2017-11-07T04:48:02.262Z,7.13
2017-11-07T04:53:04.065Z,7.27
2017-11-07T04:58:05.110Z,6.33
2017-11-07T05:03:06.199Z,5.80
2017-11-07T05:08:07.294Z,7.17
2017-11-07T05:13:08.333Z,5.80
2017-11-07T05:18:09.435Z,5.50
2017-11-07T05:23:11.259Z,5.63
2017-11-07T05:28:13.057Z,6.80
2017-11-07T05:33:15.122Z,6.50
2017-11-07T05:38:16.205Z,6.83
2017-11-07T05:43:17.306Z,6.33
2017-11-07T05:48:18.429Z,6.57
2017-11-07T05:53:19.516Z,5.60
2017-11-07T05:58:20.608Z,9.83
2017-11-07T06:03:21.761Z,6.27
2017-11-07T06:08:22.821Z,6.53
2017-11-07T06:13:23.886Z,7.27
2017-11-07T06:18:24.995Z,6.87
2017-11-07T06:23:26.826Z,7.30
2017-11-07T06:28:27.881Z,7.40
2017-11-07T06:33:28.968Z,7.90
2017-11-07T06:38:30.054Z,7.60
2017-11-07T06:43:31.874Z,7.70
2017-11-07T06:48:32.926Z,7.80
2017-11-07T06:53:33.997Z,8.53
2017-11-07T06:58:35.057Z,8.50
2017-11-07T07:03:36.230Z,8.30
2017-11-07T07:08:37.318Z,8.30
2017-11-07T07:13:39.115Z,9.07
2017-11-07T07:18:40.194Z,9.23
2017-11-07T07:23:41.238Z,9.37
2017-11-07T07:28:42.310Z,9.13
2017-11-07T07:33:43.358Z,10.17
2017-11-07T07:38:44.435Z,10.30
2017-11-07T07:43:45.590Z,9.70
2017-11-07T07:48:47.386Z,8.60
2017-11-07T07:53:48.459Z,9.40
2017-11-07T07:58:49.537Z,9.87
2017-11-07T08:03:51.363Z,9.83
2017-11-07T08:08:52.460Z,8.97
2017-11-07T08:13:54.292Z,10.00
2017-11-07T08:18:55.360Z,8.70
2017-11-07T08:23:57.173Z,9.27
2017-11-07T08:28:58.968Z,10.63
2017-11-07T08:34:00.016Z,9.60
2017-11-07T08:39:01.875Z,10.90
2017-11-07T08:44:03.695Z,9.03
2017-11-07T08:49:05.515Z,12.17
2017-11-07T08:54:13.533Z,11.47
2017-11-07T08:59:14.594Z,9.10
2017-11-07T09:04:17.626Z,10.40
2017-11-07T09:09:19.433Z,10.90
2017-11-07T09:14:20.569Z,11.07
2017-11-07T09:19:21.630Z,11.10
2017-11-07T09:24:22.717Z,11.60
2017-11-07T09:29:23.768Z,12.43
2017-11-07T09:34:24.833Z,14.30
2017-11-07T09:39:25.914Z,13.77
2017-11-07T09:44:27.011Z,14.37
2017-11-07T09:49:28.815Z,13.87
2017-11-07T09:54:29.894Z,14.40
2017-11-07T09:59:30.936Z,14.80
2017-11-07T10:04:32.066Z,13.93
2017-11-07T10:09:33.877Z,16.83
2017-11-07T10:14:34.970Z,14.27
2017-11-07T10:19:36.041Z,15.17
2017-11-07T10:24:37.854Z,14.83
2017-11-07T10:29:38.936Z,14.97
2017-11-07T10:34:40.006Z,14.33
2017-11-07T10:39:41.087Z,14.53
2017-11-07T10:44:42.157Z,12.50
2017-11-07T10:49:43.990Z,13.00
2017-11-07T10:54:45.073Z,15.93
2017-11-07T10:59:46.174Z,14.70
2017-11-07T11:04:47.346Z,14.70
2017-11-07T11:09:48.431Z,14.23
2017-11-07T11:14:49.489Z,13.80
2017-11-07T11:19:50.570Z,12.90
2017-11-07T11:24:51.644Z,15.43
2017-11-07T11:29:53.488Z,14.27
2017-11-07T11:34:54.541Z,14.73
2017-11-07T11:39:55.646Z,13.17
2017-11-07T11:44:57.454Z,14.93
2017-11-07T11:49:58.522Z,15.90
2017-11-07T11:54:59.637Z,15.77
2017-11-07T12:00:08.444Z,14.80
2017-11-07T12:05:09.508Z,15.93
2017-11-07T12:10:10.606Z,14.70
2017-11-07T12:15:11.673Z,15.40
2017-11-07T12:20:12.738Z,15.63
2017-11-07T12:25:13.814Z,16.60
2017-11-07T12:30:14.908Z,16.37
2017-11-07T12:35:16.011Z,15.30
2017-11-07T12:40:17.135Z,15.80
2017-11-07T12:45:18.322Z,14.40
2017-11-07T12:50:31.805Z,15.40
2017-11-07T12:55:32.880Z,15.37
2017-11-07T13:00:33.952Z,15.13
2017-11-07T13:05:35.006Z,15.70
2017-11-07T13:10:36.091Z,17.40
2017-11-07T13:15:37.958Z,16.60
2017-11-07T13:20:39.786Z,18.33
2017-11-07T13:25:40.872Z,18.07
2017-11-07T13:30:41.967Z,18.90
2017-11-07T13:35:43.798Z,17.63
2017-11-07T13:40:44.842Z,18.43
2017-11-07T13:45:47.944Z,21.20
2017-11-07T13:50:49.016Z,18.63
2017-11-07T13:55:53.201Z,19.00
2017-11-07T14:00:54.242Z,19.47
2017-11-07T14:05:56.026Z,20.87
2017-11-07T14:10:57.810Z,18.37
2017-11-07T14:15:58.850Z,19.90
2017-11-07T14:21:00.641Z,18.33
2017-11-07T14:26:01.689Z,20.90
2017-11-07T14:31:03.502Z,19.77
2017-11-07T14:36:04.585Z,18.20
2017-11-07T14:41:06.412Z,18.53
2017-11-07T14:46:07.456Z,18.90
2017-11-07T14:51:09.255Z,19.60
2017-11-07T14:56:10.321Z,18.90
2017-11-07T15:01:11.385Z,18.00
2017-11-07T15:06:12.489Z,17.83
2017-11-07T15:11:14.298Z,18.90
2017-11-07T15:16:15.360Z,16.67
2017-11-07T15:21:16.430Z,19.30
2017-11-07T15:26:17.489Z,18.50
2017-11-07T15:31:18.568Z,17.10
2017-11-07T15:36:19.633Z,19.00
2017-11-07T15:41:20.686Z,19.57
2017-11-07T15:46:21.748Z,19.90
2017-11-07T15:51:22.838Z,19.17
2017-11-07T15:56:23.890Z,19.80
2017-11-07T16:01:24.977Z,19.73
2017-11-07T16:06:26.071Z,19.80
2017-11-07T16:11:27.400Z,22.57
2017-11-07T16:16:28.461Z,20.40
2017-11-07T16:21:29.516Z,20.00
2017-11-07T16:26:30.589Z,20.30
2017-11-07T16:31:31.694Z,20.13
2017-11-07T16:36:32.752Z,22.47
2017-11-07T16:41:34.064Z,21.67
2017-11-07T16:46:35.120Z,20.97
2017-11-07T16:51:36.205Z,21.90
2017-11-07T16:56:37.270Z,20.63
2017-11-07T17:01:38.322Z,20.03
2017-11-07T17:06:39.384Z,21.70
2017-11-07T17:11:40.440Z,21.00
2017-11-07T17:16:41.500Z,20.67
2017-11-07T17:21:42.549Z,21.83
2017-11-07T17:26:43.597Z,23.87
2017-11-07T17:31:44.734Z,22.20
2017-11-07T17:36:46.583Z,23.90
2017-11-07T17:41:47.655Z,23.63
2017-11-07T17:46:49.513Z,24.30
2017-11-07T17:51:50.588Z,24.77
2017-11-07T17:56:52.385Z,23.13
2017-11-07T18:01:53.437Z,23.30
2017-11-07T18:06:55.226Z,22.53
2017-11-07T18:11:56.289Z,23.43
2017-11-07T18:16:57.327Z,24.40
2017-11-07T18:21:58.394Z,23.83
2017-11-07T18:26:59.449Z,22.77
2017-11-07T18:32:00.524Z,23.90
2017-11-07T18:37:01.651Z,25.40
2017-11-07T18:42:03.460Z,23.10
2017-11-07T18:47:06.535Z,24.87
2017-11-07T18:52:08.378Z,22.47
2017-11-07T18:57:09.472Z,24.63
2017-11-07T19:02:11.296Z,23.60
2017-11-07T19:07:12.353Z,23.03
2017-11-07T19:12:13.430Z,22.80
2017-11-07T19:17:14.510Z,22.37
2017-11-07T19:22:19.890Z,23.40
2017-11-07T19:27:21.980Z,22.47
2017-11-07T19:32:23.107Z,21.57
2017-11-07T19:37:24.226Z,24.37
2017-11-07T19:42:28.941Z,24.60
2017-11-07T19:47:30.045Z,26.50
2017-11-07T19:52:31.181Z,23.90
2017-11-07T19:57:32.245Z,27.10
2017-11-07T20:02:33.276Z,26.57
2017-11-07T20:07:34.322Z,24.47
2017-11-07T20:12:39.273Z,25.43
2017-11-07T20:17:41.083Z,25.60
2017-11-07T20:22:42.373Z,26.63
2017-11-07T20:27:43.518Z,25.37
2017-11-07T20:32:44.592Z,24.67
2017-11-07T20:37:45.670Z,25.43
2017-11-07T20:42:48.474Z,25.57
2017-11-07T20:47:50.293Z,26.10
2017-11-07T20:52:51.430Z,26.97
2017-11-07T20:57:52.498Z,26.50
2017-11-07T21:02:53.576Z,26.20
2017-11-07T21:07:54.638Z,26.37
2017-11-07T21:13:01.739Z,25.20
2017-11-07T21:18:13.089Z,27.33
2017-11-07T21:23:18.164Z,26.30
2017-11-07T21:28:19.280Z,27.00
2017-11-07T21:33:20.357Z,27.87
2017-11-07T21:38:33.036Z,27.30
2017-11-07T21:43:34.072Z,28.80
2017-11-07T21:48:39.180Z,28.37
2017-11-07T21:53:40.232Z,27.07
2017-11-07T21:58:41.338Z,26.90
2017-11-07T22:03:42.394Z,27.23
2017-11-07T22:08:43.459Z,25.70
2017-11-07T22:13:44.549Z,25.50
2017-11-07T22:18:46.249Z,26.00
2017-11-07T22:23:47.340Z,25.97
2017-11-07T22:28:48.385Z,25.80
2017-11-07T22:33:50.214Z,27.30
2017-11-07T22:38:51.284Z,26.13
2017-11-07T22:43:52.336Z,27.80
2017-11-07T22:48:53.414Z,26.63
2017-11-07T22:53:56.061Z,26.77
2017-11-07T22:58:57.107Z,26.00
2017-11-07T23:03:58.172Z,26.97
2017-11-07T23:08:59.241Z,27.93
2017-11-07T23:14:00.341Z,26.47
2017-11-07T23:19:01.416Z,29.90
2017-11-07T23:24:03.284Z,26.20
2017-11-07T23:29:04.363Z,28.17
2017-11-07T23:34:06.205Z,24.97
2017-11-07T23:39:07.283Z,26.90
2017-11-07T23:44:09.136Z,25.77
2017-11-07T23:49:10.201Z,26.00
2017-11-07T23:54:11.261Z,26.00
2017-11-07T23:59:12.361Z,25.17
